createdAt,value
2018-01-23T00:02:23.910Z,7.70
2018-01-23T00:04:51.619Z,7.70
2018-01-23T00:07:19.256Z,7.60
2018-01-23T00:09:47.683Z,7.60
2018-01-23T00:12:15.373Z,7.60
2018-01-23T00:14:43.196Z,7.60
2018-01-23T00:17:11.057Z,7.60
2018-01-23T00:19:38.995Z,7.60
2018-01-23T00:22:06.773Z,7.60
2018-01-23T00:24:34.518Z,7.60
2018-01-23T00:27:02.344Z,7.70
2018-01-23T00:29:30.130Z,7.60
2018-01-23T00:31:57.979Z,7.70
2018-01-23T00:34:25.637Z,7.70
2018-01-23T00:36:53.313Z,7.70
2018-01-23T00:39:20.998Z,7.80
2018-01-23T00:41:49.384Z,7.60
2018-01-23T00:44:17.834Z,7.60
2018-01-23T00:46:45.510Z,7.60
2018-01-23T00:49:13.907Z,7.50
2018-01-23T00:51:42.352Z,7.50
2018-01-23T00:54:10.031Z,7.50
2018-01-23T00:56:37.717Z,7.60
2018-01-23T00:59:05.358Z,7.50
2018-01-23T01:04:07.765Z,7.40
2018-01-23T01:06:36.209Z,7.40
2018-01-23T01:09:03.920Z,7.40
2018-01-23T01:11:31.593Z,7.50
2018-01-23T01:13:59.250Z,7.50
2018-01-23T01:16:26.892Z,7.50
2018-01-23T01:18:55.311Z,7.50
2018-01-23T01:21:24.007Z,7.40
2018-01-23T01:23:51.683Z,7.40
2018-01-23T01:26:19.315Z,7.50
2018-01-23T01:28:47.029Z,7.40
2018-01-23T01:31:15.454Z,7.40
2018-01-23T01:33:43.103Z,7.40
2018-01-23T01:36:10.778Z,7.40
2018-01-23T01:38:38.409Z,7.40
2018-01-23T01:41:06.844Z,7.50
2018-01-23T01:43:34.506Z,7.50
2018-01-23T01:46:02.213Z,7.50
2018-01-23T01:48:42.360Z,7.40
2018-01-23T01:51:10.798Z,7.40
2018-01-23T01:53:38.467Z,7.40
2018-01-23T01:56:06.125Z,7.40
2018-01-23T01:58:33.805Z,7.50
2018-01-23T02:01:01.429Z,7.40
2018-01-23T02:03:29.906Z,7.50
2018-01-23T02:05:57.590Z,7.50
2018-01-23T02:08:25.255Z,7.50
2018-01-23T02:10:52.945Z,7.40
2018-01-23T02:13:20.577Z,7.40
2018-01-23T02:15:48.219Z,7.40
2018-01-23T02:18:15.920Z,7.40
2018-01-23T02:20:43.585Z,7.40
2018-01-23T02:23:11.223Z,7.40
2018-01-23T02:25:38.905Z,7.40
2018-01-23T02:28:06.589Z,7.40
2018-01-23T02:30:34.257Z,7.40
2018-01-23T02:33:02.894Z,7.50
2018-01-23T02:35:30.563Z,7.50
2018-01-23T02:37:58.224Z,7.50
2018-01-23T02:40:25.917Z,7.50
2018-01-23T02:42:54.363Z,7.50
2018-01-23T02:45:22.050Z,7.50
2018-01-23T02:47:49.704Z,7.50
2018-01-23T02:50:17.368Z,7.60
2018-01-23T02:52:45.050Z,7.60
2018-01-23T02:55:13.482Z,7.50
2018-01-23T02:57:43.117Z,7.50
2018-01-23T03:00:10.788Z,7.50
2018-01-23T03:02:38.454Z,7.50
2018-01-23T03:05:06.893Z,7.60
2018-01-23T03:07:34.548Z,7.60
2018-01-23T03:10:02.215Z,7.50
2018-01-23T03:12:29.983Z,7.50
2018-01-23T03:14:57.807Z,7.60
2018-01-23T03:17:25.688Z,7.60
2018-01-23T03:19:53.970Z,7.60
2018-01-23T03:22:21.845Z,7.70
2018-01-23T03:24:49.568Z,7.60
2018-01-23T03:27:17.219Z,7.70
2018-01-23T03:29:44.860Z,7.60
2018-01-23T03:32:12.512Z,7.60
2018-01-23T03:34:40.179Z,7.60
2018-01-23T03:37:07.861Z,7.60
2018-01-23T03:39:35.511Z,7.60
2018-01-23T03:42:03.143Z,7.50
2018-01-23T03:44:30.907Z,7.40
2018-01-23T03:46:58.567Z,7.50
2018-01-23T03:49:26.246Z,7.40
2018-01-23T03:51:53.943Z,7.50
2018-01-23T03:54:22.372Z,7.60
2018-01-23T03:56:50.037Z,7.50
2018-01-23T03:59:17.701Z,7.60
2018-01-23T04:01:46.412Z,7.50
2018-01-23T04:04:14.035Z,7.40
2018-01-23T04:06:41.662Z,7.40
2018-01-23T04:09:10.136Z,7.30
2018-01-23T04:11:37.790Z,7.30
2018-01-23T04:14:05.498Z,7.20
2018-01-23T04:16:33.155Z,7.30
2018-01-23T04:19:00.793Z,7.30
2018-01-23T04:21:28.495Z,7.30
2018-01-23T04:23:56.137Z,7.30
2018-01-23T04:26:23.798Z,7.30
2018-01-23T04:28:51.507Z,7.30
2018-01-23T04:31:19.137Z,7.30
2018-01-23T04:33:46.768Z,7.30
2018-01-23T04:36:15.240Z,7.30
2018-01-23T04:38:43.729Z,7.30
2018-01-23T04:41:12.127Z,7.30
2018-01-23T04:43:39.823Z,7.30
2018-01-23T04:46:07.493Z,7.30
2018-01-23T04:48:35.122Z,7.20
2018-01-23T04:51:02.851Z,7.20
2018-01-23T04:53:31.260Z,7.20
2018-01-23T04:55:58.914Z,7.20
2018-01-23T04:58:26.643Z,7.20
2018-01-23T05:00:54.289Z,7.20
2018-01-23T05:03:22.026Z,7.10
2018-01-23T05:05:49.651Z,7.10
2018-01-23T05:08:17.425Z,7.10
2018-01-23T05:10:45.155Z,7.10
2018-01-23T05:13:12.822Z,7.10
2018-01-23T05:15:40.479Z,7.00
2018-01-23T05:18:08.173Z,7.10
2018-01-23T05:20:35.861Z,7.00
2018-01-23T05:23:03.536Z,7.10
2018-01-23T05:25:31.204Z,7.00
2018-01-23T05:27:58.914Z,7.00
2018-01-23T05:30:27.538Z,7.10
2018-01-23T05:32:55.302Z,7.10
2018-01-23T05:35:22.938Z,7.10
2018-01-23T05:37:50.594Z,7.20
2018-01-23T05:40:18.281Z,7.20
2018-01-23T05:42:45.926Z,7.10
2018-01-23T05:45:13.666Z,7.10
2018-01-23T05:47:42.111Z,7.20
2018-01-23T05:50:09.739Z,7.20
2018-01-23T05:52:37.643Z,7.20
2018-01-23T05:55:05.315Z,7.20
2018-01-23T05:57:32.957Z,7.20
2018-01-23T06:00:00.681Z,7.20
2018-01-23T06:02:28.312Z,7.20
2018-01-23T06:04:56.791Z,7.10
2018-01-23T06:07:25.217Z,7.20
2018-01-23T06:09:52.864Z,7.20
2018-01-23T06:12:20.587Z,7.20
2018-01-23T06:14:48.242Z,7.30
2018-01-23T06:17:15.872Z,7.40
2018-01-23T06:19:43.618Z,7.30
2018-01-23T06:22:11.260Z,7.30
2018-01-23T06:24:39.677Z,7.40
2018-01-23T06:27:07.393Z,7.40
2018-01-23T06:29:35.030Z,7.40
2018-01-23T06:32:02.647Z,7.30
2018-01-23T06:34:30.373Z,7.30
2018-01-23T06:36:58.041Z,7.30
2018-01-23T06:39:25.726Z,7.30
2018-01-23T06:41:53.361Z,7.30
2018-01-23T06:44:21.000Z,7.30
2018-01-23T06:46:48.750Z,7.20
2018-01-23T06:49:16.403Z,7.10
2018-01-23T06:51:44.049Z,7.10
2018-01-23T06:54:11.757Z,7.10
2018-01-23T06:56:39.399Z,7.00
2018-01-23T06:59:07.023Z,7.00
2018-01-23T07:01:34.705Z,7.00
2018-01-23T07:04:02.338Z,7.00
2018-01-23T07:06:30.020Z,7.00
2018-01-23T07:08:57.760Z,6.90
2018-01-23T07:11:26.163Z,6.90
2018-01-23T07:13:54.084Z,6.90
2018-01-23T07:16:21.714Z,6.90
2018-01-23T07:18:49.397Z,6.90
2018-01-23T07:21:17.117Z,6.90
2018-01-23T07:23:44.735Z,7.00
2018-01-23T07:26:12.398Z,7.00
2018-01-23T07:28:40.862Z,7.00
2018-01-23T07:31:08.487Z,7.00
2018-01-23T07:33:36.138Z,7.10
2018-01-23T07:36:03.858Z,7.20
2018-01-23T07:38:31.521Z,7.10
2018-01-23T07:40:59.222Z,7.20
2018-01-23T07:43:26.897Z,7.20
2018-01-23T07:45:54.555Z,7.30
2018-01-23T07:48:22.247Z,7.20
2018-01-23T07:50:49.902Z,7.20
2018-01-23T07:53:17.553Z,7.20
2018-01-23T07:55:45.249Z,6.90
2018-01-23T07:58:12.893Z,6.80
2018-01-23T08:00:40.604Z,6.60
2018-01-23T08:03:09.008Z,6.60
2018-01-23T08:05:36.641Z,6.60
2018-01-23T08:08:04.367Z,6.70
2018-01-23T08:10:32.023Z,6.80
2018-01-23T08:12:59.800Z,6.90
2018-01-23T08:15:27.602Z,6.90
2018-01-23T08:17:55.407Z,7.00
2018-01-23T08:20:23.363Z,7.10
2018-01-23T08:22:51.210Z,7.20
2018-01-23T08:25:18.894Z,7.30
2018-01-23T08:27:46.777Z,7.40
2018-01-23T08:30:14.663Z,7.50
2018-01-23T08:32:43.204Z,7.50
2018-01-23T08:35:11.066Z,7.40
2018-01-23T08:37:38.877Z,7.50
2018-01-23T08:40:06.741Z,7.60
2018-01-23T08:42:34.443Z,7.70
2018-01-23T08:45:03.060Z,7.90
2018-01-23T08:47:31.723Z,7.80
2018-01-23T08:49:59.557Z,7.90
2018-01-23T08:52:27.397Z,8.00
2018-01-23T08:54:55.151Z,8.00
2018-01-23T08:57:22.865Z,8.00
2018-01-23T08:59:50.496Z,8.10
2018-01-23T09:02:18.133Z,8.10
2018-01-23T09:04:45.824Z,8.10
2018-01-23T09:07:13.498Z,8.10
2018-01-23T09:09:41.983Z,8.10
2018-01-23T09:12:10.418Z,8.10
2018-01-23T09:14:38.071Z,8.10
2018-01-23T09:17:05.781Z,8.20
2018-01-23T09:19:34.182Z,8.20
2018-01-23T09:22:02.642Z,8.30
2018-01-23T09:24:30.470Z,8.30
2018-01-23T09:26:58.400Z,8.30
2018-01-23T09:29:26.162Z,8.20
2018-01-23T09:31:54.100Z,8.40
2018-01-23T09:34:22.548Z,8.60
2018-01-23T09:36:50.950Z,8.70
2018-01-23T09:39:18.653Z,8.70
2018-01-23T09:41:46.342Z,8.80
2018-01-23T09:44:13.981Z,8.70
2018-01-23T09:46:42.432Z,8.70
2018-01-23T09:49:10.834Z,8.80
2018-01-23T09:51:39.317Z,8.90
2018-01-23T09:54:07.726Z,9.00
2018-01-23T09:56:35.347Z,9.00
2018-01-23T09:59:03.802Z,9.40
2018-01-23T10:01:31.441Z,9.40
2018-01-23T10:03:59.202Z,9.50
2018-01-23T10:06:26.952Z,9.50
2018-01-23T10:08:54.830Z,9.70
2018-01-23T10:11:22.683Z,9.80
2018-01-23T10:13:50.427Z,10.00
2018-01-23T10:16:18.838Z,10.10
2018-01-23T10:18:46.481Z,10.00
2018-01-23T10:21:14.215Z,10.20
2018-01-23T10:23:42.631Z,10.10
2018-01-23T10:26:10.298Z,10.00
2018-01-23T10:28:38.016Z,10.00
2018-01-23T10:31:06.414Z,10.10
2018-01-23T10:33:34.839Z,10.00
2018-01-23T10:36:02.543Z,10.00
2018-01-23T10:38:30.963Z,9.80
2018-01-23T10:40:58.596Z,9.80
2018-01-23T10:43:28.254Z,9.80
2018-01-23T10:45:56.028Z,9.70
2018-01-23T10:48:23.785Z,9.70
2018-01-23T10:50:51.618Z,9.70
2018-01-23T10:53:19.268Z,9.70
2018-01-23T10:55:46.919Z,9.70
2018-01-23T10:58:15.360Z,9.60
2018-01-23T11:00:48.746Z,9.60
2018-01-23T11:03:16.472Z,9.80
2018-01-23T11:05:44.164Z,9.80
2018-01-23T11:08:11.858Z,9.90
2018-01-23T11:10:39.526Z,10.00
2018-01-23T11:13:07.214Z,10.10
2018-01-23T11:15:34.865Z,10.10
2018-01-23T11:18:04.117Z,10.00
2018-01-23T11:20:31.762Z,10.00
2018-01-23T11:22:59.462Z,9.90
2018-01-23T11:25:27.133Z,10.00
2018-01-23T11:27:54.790Z,10.00
2018-01-23T11:30:23.247Z,10.00
2018-01-23T11:32:50.944Z,10.00
2018-01-23T11:35:19.386Z,10.20
2018-01-23T11:37:47.079Z,10.20
2018-01-23T11:40:15.498Z,10.50
2018-01-23T11:42:43.162Z,10.50
2018-01-23T11:45:10.844Z,10.60
2018-01-23T11:47:38.515Z,10.80
2018-01-23T11:50:06.175Z,10.90
2018-01-23T11:52:33.986Z,10.90
2018-01-23T11:55:02.419Z,11.20
2018-01-23T11:57:30.065Z,11.20
2018-01-23T11:59:57.754Z,11.20
2018-01-23T12:02:25.402Z,11.00
2018-01-23T12:04:53.231Z,11.00
2018-01-23T12:07:20.854Z,10.90
2018-01-23T12:09:48.492Z,10.90
2018-01-23T12:12:16.160Z,11.10
2018-01-23T12:14:43.809Z,11.20
2018-01-23T12:17:11.472Z,11.20
2018-01-23T12:19:39.120Z,11.00
2018-01-23T12:22:06.819Z,11.00
2018-01-23T12:24:34.486Z,11.10
2018-01-23T12:27:02.151Z,11.10
2018-01-23T12:29:29.823Z,11.00
2018-01-23T12:32:00.188Z,10.90
2018-01-23T12:34:27.877Z,10.90
2018-01-23T12:36:55.550Z,10.80
2018-01-23T12:39:23.183Z,10.80
2018-01-23T12:41:50.849Z,10.90
2018-01-23T12:44:18.494Z,11.10
2018-01-23T12:46:46.154Z,11.20
2018-01-23T12:49:13.844Z,11.30
2018-01-23T12:51:41.477Z,11.30
2018-01-23T12:54:09.128Z,11.30
2018-01-23T12:56:37.590Z,11.20
2018-01-23T12:59:05.305Z,11.10
2018-01-23T13:01:33.037Z,11.20
2018-01-23T13:04:00.705Z,11.10
2018-01-23T13:06:28.469Z,11.00
2018-01-23T13:08:56.292Z,11.10
2018-01-23T13:11:23.939Z,11.00
2018-01-23T13:13:51.576Z,10.90
2018-01-23T13:16:19.314Z,10.80
2018-01-23T13:18:46.986Z,10.70
2018-01-23T13:21:14.669Z,10.70
2018-01-23T13:23:42.415Z,10.50
2018-01-23T13:26:10.109Z,10.60
2018-01-23T13:28:37.770Z,10.60
2018-01-23T13:31:05.502Z,10.60
2018-01-23T13:33:33.161Z,10.40
2018-01-23T13:36:00.827Z,10.40
2018-01-23T13:38:28.547Z,10.30
2018-01-23T13:40:56.232Z,10.30
2018-01-23T13:43:24.648Z,9.90
2018-01-23T13:45:53.234Z,9.90
2018-01-23T13:48:20.907Z,9.90
2018-01-23T13:50:48.554Z,9.90
2018-01-23T13:53:16.279Z,9.90
2018-01-23T13:55:43.946Z,9.80
2018-01-23T13:58:12.364Z,9.90
2018-01-23T14:00:40.845Z,9.90
2018-01-23T14:03:09.614Z,10.00
2018-01-23T14:05:37.283Z,10.00
2018-01-23T14:08:04.978Z,10.10
2018-01-23T14:10:32.634Z,10.10
2018-01-23T14:13:00.306Z,10.10
2018-01-23T14:15:28.027Z,10.20
2018-01-23T14:17:55.679Z,10.20
2018-01-23T14:20:23.398Z,10.10
2018-01-23T14:22:51.092Z,10.10
2018-01-23T14:25:19.674Z,10.00
2018-01-23T14:27:47.550Z,10.00
2018-01-23T14:30:15.303Z,10.10
2018-01-23T14:32:43.792Z,10.10
2018-01-23T14:35:11.580Z,10.10
2018-01-23T14:37:39.352Z,10.20
2018-01-23T14:40:07.297Z,10.30
2018-01-23T14:42:35.009Z,10.30
2018-01-23T14:45:03.469Z,10.30
2018-01-23T14:47:31.125Z,10.20
2018-01-23T14:49:58.784Z,10.40
2018-01-23T14:52:26.477Z,10.40
2018-01-23T14:54:54.153Z,10.40
2018-01-23T14:57:21.892Z,10.30
2018-01-23T14:59:50.574Z,10.20
2018-01-23T15:02:19.011Z,10.30
2018-01-23T15:04:47.432Z,10.30
2018-01-23T15:07:15.071Z,10.30
2018-01-23T15:09:42.742Z,10.30
2018-01-23T15:12:10.380Z,10.30
2018-01-23T15:14:38.051Z,10.40
2018-01-23T15:17:05.723Z,10.50
2018-01-23T15:19:33.359Z,10.40
2018-01-23T15:22:01.825Z,10.30
2018-01-23T15:24:30.300Z,10.20
2018-01-23T15:26:57.951Z,10.20
2018-01-23T15:29:25.648Z,10.20
2018-01-23T15:31:53.337Z,10.20
2018-01-23T15:34:21.030Z,10.10
2018-01-23T15:36:48.706Z,10.00
2018-01-23T15:39:16.383Z,10.00
2018-01-23T15:41:44.803Z,9.80
2018-01-23T15:44:12.455Z,9.80
2018-01-23T15:46:40.141Z,9.80
2018-01-23T15:49:07.827Z,9.70
2018-01-23T15:51:35.464Z,9.70
2018-01-23T15:54:03.114Z,9.60
2018-01-23T15:56:30.814Z,9.70
2018-01-23T15:58:58.453Z,9.60
2018-01-23T16:01:26.147Z,9.60
2018-01-23T16:03:53.831Z,9.50
2018-01-23T16:06:22.222Z,9.40
2018-01-23T16:08:49.894Z,9.40
2018-01-23T16:11:17.581Z,9.40
2018-01-23T16:13:45.221Z,9.50
2018-01-23T16:16:12.873Z,9.40
2018-01-23T16:18:40.533Z,9.40
2018-01-23T16:21:08.220Z,9.40
2018-01-23T16:23:35.893Z,9.50
2018-01-23T16:26:03.543Z,9.50
2018-01-23T16:28:31.229Z,9.50
2018-01-23T16:30:58.879Z,9.50
2018-01-23T16:33:26.548Z,9.60
2018-01-23T16:35:54.204Z,9.60
2018-01-23T16:38:21.915Z,9.60
2018-01-23T16:40:50.358Z,9.50
2018-01-23T16:43:18.040Z,9.50
2018-01-23T16:45:46.487Z,9.60
2018-01-23T16:48:14.122Z,9.60
2018-01-23T16:50:41.803Z,9.60
2018-01-23T16:53:09.468Z,9.60
2018-01-23T16:55:37.095Z,9.70
2018-01-23T16:58:04.777Z,9.70
2018-01-23T17:00:32.493Z,9.70
2018-01-23T17:03:00.202Z,9.60
2018-01-23T17:05:27.991Z,9.70
2018-01-23T17:07:56.615Z,9.70
2018-01-23T17:10:24.535Z,9.70
2018-01-23T17:12:52.414Z,9.80
2018-01-23T17:15:20.126Z,9.80
2018-01-23T17:17:47.794Z,9.70
2018-01-23T17:20:15.487Z,9.80
2018-01-23T17:22:43.147Z,9.80
2018-01-23T17:25:10.818Z,9.80
2018-01-23T17:27:39.272Z,9.80
2018-01-23T17:30:06.943Z,9.80
2018-01-23T17:32:34.590Z,9.70
2018-01-23T17:35:02.267Z,9.70
2018-01-23T17:37:29.951Z,9.70
2018-01-23T17:39:57.627Z,9.60
2018-01-23T17:42:25.290Z,9.60
2018-01-23T17:44:52.999Z,9.60
2018-01-23T17:47:20.639Z,9.60
2018-01-23T17:49:49.057Z,9.50
2018-01-23T17:52:16.732Z,9.50
2018-01-23T17:54:44.432Z,9.40
2018-01-23T17:57:12.915Z,9.30
2018-01-23T17:59:41.352Z,9.30
2018-01-23T18:02:09.046Z,9.30
2018-01-23T18:04:36.713Z,9.20
2018-01-23T18:07:04.588Z,9.20
2018-01-23T18:09:32.996Z,9.00
2018-01-23T18:12:00.623Z,9.00
2018-01-23T18:14:28.302Z,8.90
2018-01-23T18:16:56.707Z,8.80
2018-01-23T18:19:24.389Z,8.70
2018-01-23T18:21:52.039Z,8.70
2018-01-23T18:24:19.678Z,8.50
2018-01-23T18:26:47.350Z,8.40
2018-01-23T18:29:15.029Z,8.30
2018-01-23T18:31:42.668Z,8.10
2018-01-23T18:34:10.318Z,8.00
2018-01-23T18:36:38.741Z,7.60
2018-01-23T18:39:06.391Z,7.60
2018-01-23T18:41:34.074Z,7.60
2018-01-23T18:44:01.704Z,7.40
2018-01-23T18:46:29.359Z,7.20
2018-01-23T18:48:56.988Z,7.10
2018-01-23T18:51:25.421Z,6.80
2018-01-23T18:53:53.098Z,6.70
2018-01-23T18:56:21.782Z,6.70
2018-01-23T18:58:49.408Z,6.70
2018-01-23T19:01:17.055Z,6.60
2018-01-23T19:03:44.766Z,6.40
2018-01-23T19:06:12.413Z,6.40
2018-01-23T19:08:40.030Z,6.30
2018-01-23T19:11:08.442Z,6.00
2018-01-23T19:13:36.091Z,6.00
2018-01-23T19:16:04.673Z,5.90
2018-01-23T19:18:32.327Z,5.80
2018-01-23T19:21:00.817Z,5.70
2018-01-23T19:23:28.525Z,5.70
2018-01-23T19:25:57.298Z,5.70
2018-01-23T19:28:25.099Z,5.60
2018-01-23T19:30:53.685Z,5.50
2018-01-23T19:33:22.841Z,5.50
2018-01-23T19:35:50.601Z,5.50
2018-01-23T19:38:18.371Z,5.50
2018-01-23T19:40:46.179Z,5.50
2018-01-23T19:43:13.953Z,5.50
2018-01-23T19:45:41.620Z,5.50
2018-01-23T19:48:10.069Z,5.40
2018-01-23T19:50:37.749Z,5.40
2018-01-23T19:53:05.400Z,5.30
2018-01-23T19:55:33.046Z,5.20
2018-01-23T19:58:00.729Z,5.10
2018-01-23T20:00:28.373Z,5.00
2018-01-23T20:02:56.021Z,5.00
2018-01-23T20:05:23.684Z,5.00
2018-01-23T20:07:51.356Z,5.10
2018-01-23T20:10:19.036Z,5.00
2018-01-23T20:12:46.678Z,5.00
2018-01-23T20:15:14.312Z,5.00
2018-01-23T20:17:41.972Z,4.80
2018-01-23T20:20:09.622Z,4.80
2018-01-23T20:22:37.319Z,4.80
2018-01-23T20:25:04.947Z,4.90
2018-01-23T20:27:32.627Z,5.00
2018-01-23T20:30:00.309Z,5.00
2018-01-23T20:32:27.935Z,5.10
2018-01-23T20:34:55.563Z,5.20
2018-01-23T20:37:24.023Z,5.20
2018-01-23T20:39:51.857Z,5.20
2018-01-23T20:42:19.486Z,5.30
2018-01-23T20:44:48.025Z,5.30
2018-01-23T20:47:15.765Z,5.20
2018-01-23T20:49:43.413Z,5.30
2018-01-23T20:52:11.088Z,5.30
2018-01-23T20:54:38.721Z,5.30
2018-01-23T20:57:07.109Z,5.40
2018-01-23T20:59:34.762Z,5.40
2018-01-23T21:02:02.450Z,5.40
2018-01-23T21:04:30.075Z,5.50
2018-01-23T21:06:58.487Z,5.60
2018-01-23T21:09:26.167Z,5.60
2018-01-23T21:11:53.858Z,5.60
2018-01-23T21:14:21.564Z,5.60
2018-01-23T21:16:49.433Z,5.60
2018-01-23T21:19:17.212Z,5.60
2018-01-23T21:21:44.967Z,5.60
2018-01-23T21:24:12.725Z,5.50
2018-01-23T21:26:40.525Z,5.40
2018-01-23T21:29:08.346Z,5.40
2018-01-23T21:31:36.129Z,5.30
2018-01-23T21:34:03.831Z,5.20
2018-01-23T21:36:31.458Z,5.20
2018-01-23T21:38:59.122Z,5.20
2018-01-23T21:41:26.758Z,5.10
2018-01-23T21:43:54.421Z,5.10
2018-01-23T21:46:22.082Z,5.10
2018-01-23T21:48:49.727Z,5.00
2018-01-23T21:51:18.123Z,5.10
2018-01-23T21:53:45.775Z,5.10
2018-01-23T21:56:14.199Z,5.10
2018-01-23T21:58:41.927Z,5.10
2018-01-23T22:01:09.539Z,5.10
2018-01-23T22:03:37.361Z,5.10
2018-01-23T22:06:05.143Z,5.10
2018-01-23T22:08:32.875Z,5.30
2018-01-23T22:11:00.696Z,5.30
2018-01-23T22:13:29.149Z,5.50
2018-01-23T22:15:56.789Z,5.50
2018-01-23T22:18:24.479Z,5.60
2018-01-23T22:20:52.117Z,5.80
2018-01-23T22:23:19.790Z,5.90
2018-01-23T22:25:47.504Z,5.90
2018-01-23T22:28:15.139Z,6.00
2018-01-23T22:30:42.778Z,6.10
2018-01-23T22:33:10.447Z,6.20
2018-01-23T22:35:38.081Z,6.30
2018-01-23T22:38:05.781Z,6.30
2018-01-23T22:40:33.397Z,6.40
2018-01-23T22:43:01.783Z,6.40
2018-01-23T22:45:29.449Z,6.40
2018-01-23T22:47:57.132Z,6.40
2018-01-23T22:50:24.777Z,6.40
2018-01-23T22:52:52.452Z,6.40
2018-01-23T22:55:20.072Z,6.40
2018-01-23T22:57:48.549Z,6.50
2018-01-23T23:00:16.201Z,6.50
2018-01-23T23:02:43.860Z,6.60
2018-01-23T23:05:11.557Z,6.60
2018-01-23T23:07:39.225Z,6.60
2018-01-23T23:10:06.876Z,6.70
2018-01-23T23:12:35.338Z,6.70
2018-01-23T23:15:02.962Z,6.70
2018-01-23T23:17:30.616Z,6.70
2018-01-23T23:19:58.277Z,6.70
2018-01-23T23:22:25.917Z,6.70
2018-01-23T23:24:53.637Z,6.70
2018-01-23T23:27:21.273Z,6.70
2018-01-23T23:29:48.919Z,6.80
2018-01-23T23:32:16.787Z,6.80
2018-01-23T23:34:44.477Z,6.70
2018-01-23T23:37:12.177Z,6.70
2018-01-23T23:39:40.595Z,6.80
2018-01-23T23:42:08.251Z,6.70
2018-01-23T23:44:35.943Z,6.70
2018-01-23T23:47:03.599Z,6.90
2018-01-23T23:49:31.226Z,6.90
2018-01-23T23:51:58.939Z,6.90
2018-01-23T23:54:26.566Z,7.00
2018-01-23T23:56:54.204Z,7.10
2018-01-23T23:59:21.939Z,7.10
